sensor_id;sensor_type;location;lat;lon;timestamp;pressure;altitude;pressure_sealevel;temperature;humidity
56737;BME280;42618;51.226;4.910;2022-12-29T00:02:00;49738.97;;;-146.94;100.00
56737;BME280;42618;51.226;4.910;2022-12-29T00:04:27;49774.84;;;-146.94;100.00
56737;BME280;42618;51.226;4.910;2022-12-29T00:06:53;49752.91;;;-146.94;100.00
56737;BME280;42618;51.226;4.910;2022-12-29T00:09:20;49734.97;;;-146.94;100.00
56737;BME280;42618;51.226;4.910;2022-12-29T00:11:47;49772.84;;;-146.94;100.00
56737;BME280;42618;51.226;4.910;2022-12-29T00:14:14;49754.91;;;-146.94;100.00
56737;BME280;42618;51.226;4.910;2022-12-29T00:16:59;49770.88;;;-146.94;100.00
56737;BME280;42618;51.226;4.910;2022-12-29T00:19:26;49762.88;;;-146.94;100.00
56737;BME280;42618;51.226;4.910;2022-12-29T00:22:13;49762.88;;;-146.94;100.00
56737;BME280;42618;51.226;4.910;2022-12-29T00:24:59;49774.84;;;-146.94;100.00
56737;BME280;42618;51.226;4.910;2022-12-29T00:27:45;49742.94;;;-146.94;100.00
56737;BME280;42618;51.226;4.910;2022-12-29T00:30:33;49782.81;;;-146.94;100.00
56737;BME280;42618;51.226;4.910;2022-12-29T00:33:20;49744.94;;;-146.94;100.00
56737;BME280;42618;51.226;4.910;2022-12-29T00:36:09;49766.88;;;-146.94;100.00
56737;BME280;42618;51.226;4.910;2022-12-29T00:38:47;49764.88;;;-146.94;100.00
56737;BME280;42618;51.226;4.910;2022-12-29T00:41:34;49754.91;;;-146.94;100.00
56737;BME280;42618;51.226;4.910;2022-12-29T00:44:30;49772.84;;;-146.94;100.00
56737;BME280;42618;51.226;4.910;2022-12-29T00:47:13;49786.81;;;-146.94;100.00
56737;BME280;42618;51.226;4.910;2022-12-29T00:49:39;49784.81;;;-146.94;100.00
56737;BME280;42618;51.226;4.910;2022-12-29T00:52:09;49723.03;;;-146.94;100.00
56737;BME280;42618;51.226;4.910;2022-12-29T00:54:37;49766.88;;;-146.94;100.00
56737;BME280;42618;51.226;4.910;2022-12-29T00:57:06;49740.97;;;-146.94;100.00
56737;BME280;42618;51.226;4.910;2022-12-29T00:59:37;49738.97;;;-146.94;100.00
56737;BME280;42618;51.226;4.910;2022-12-29T01:02:05;49744.94;;;-146.94;100.00
56737;BME280;42618;51.226;4.910;2022-12-29T01:04:33;49721.03;;;-146.94;100.00
56737;BME280;42618;51.226;4.910;2022-12-29T01:07:00;49790.81;;;-146.94;100.00
56737;BME280;42618;51.226;4.910;2022-12-29T01:09:26;49758.91;;;-146.94;100.00
56737;BME280;42618;51.226;4.910;2022-12-29T01:12:12;49738.97;;;-146.94;100.00
56737;BME280;42618;51.226;4.910;2022-12-29T01:14:40;49762.88;;;-146.94;100.00
56737;BME280;42618;51.226;4.910;2022-12-29T01:17:07;49752.91;;;-146.94;100.00
56737;BME280;42618;51.226;4.910;2022-12-29T01:19:34;49742.94;;;-146.94;100.00
56737;BME280;42618;51.226;4.910;2022-12-29T01:22:01;49742.94;;;-146.94;100.00
56737;BME280;42618;51.226;4.910;2022-12-29T01:24:28;49721.03;;;-146.94;100.00
56737;BME280;42618;51.226;4.910;2022-12-29T01:26:55;49717.03;;;-146.94;100.00
56737;BME280;42618;51.226;4.910;2022-12-29T01:29:22;49750.94;;;-146.94;100.00
56737;BME280;42618;51.226;4.910;2022-12-29T01:31:48;49707.06;;;-146.94;100.00
56737;BME280;42618;51.226;4.910;2022-12-29T01:34:16;49754.91;;;-146.94;100.00
56737;BME280;42618;51.226;4.910;2022-12-29T01:36:43;49748.94;;;-146.94;100.00
56737;BME280;42618;51.226;4.910;2022-12-29T01:39:11;49715.03;;;-146.94;100.00
56737;BME280;42618;51.226;4.910;2022-12-29T01:41:39;49729.00;;;-146.94;100.00
56737;BME280;42618;51.226;4.910;2022-12-29T01:44:49;49778.84;;;-146.94;100.00
56737;BME280;42618;51.226;4.910;2022-12-29T01:47:26;49756.91;;;-146.94;100.00
56737;BME280;42618;51.226;4.910;2022-12-29T01:49:58;49772.84;;;-146.94;100.00
56737;BME280;42618;51.226;4.910;2022-12-29T01:52:30;49748.94;;;-146.94;100.00
56737;BME280;42618;51.226;4.910;2022-12-29T01:55:02;49734.97;;;-146.94;100.00
56737;BME280;42618;51.226;4.910;2022-12-29T01:57:33;49770.88;;;-146.94;100.00
56737;BME280;42618;51.226;4.910;2022-12-29T02:00:05;49727.00;;;-146.94;100.00
56737;BME280;42618;51.226;4.910;2022-12-29T02:02:47;49717.03;;;-146.94;100.00
56737;BME280;42618;51.226;4.910;2022-12-29T02:05:33;49776.84;;;-146.94;100.00
56737;BME280;42618;51.226;4.910;2022-12-29T02:08:04;49762.88;;;-146.94;100.00
56737;BME280;42618;51.226;4.910;2022-12-29T02:10:35;49758.91;;;-146.94;100.00
56737;BME280;42618;51.226;4.910;2022-12-29T02:13:02;49734.97;;;-146.94;100.00
56737;BME280;42618;51.226;4.910;2022-12-29T02:37:26;49758.91;;;-146.94;100.00
56737;BME280;42618;51.226;4.910;2022-12-29T02:40:43;49752.91;;;-146.94;100.00
56737;BME280;42618;51.226;4.910;2022-12-29T02:49:05;49736.97;;;-146.94;100.00
56737;BME280;42618;51.226;4.910;2022-12-29T02:51:55;49750.94;;;-146.94;100.00
56737;BME280;42618;51.226;4.910;2022-12-29T02:54:24;49731.00;;;-146.94;100.00
56737;BME280;42618;51.226;4.910;2022-12-29T02:57:15;49754.91;;;-146.94;100.00
56737;BME280;42618;51.226;4.910;2022-12-29T02:59:44;49742.94;;;-146.94;100.00
56737;BME280;42618;51.226;4.910;2022-12-29T03:02:22;49738.97;;;-146.94;100.00
56737;BME280;42618;51.226;4.910;2022-12-29T03:07:52;49766.88;;;-146.94;100.00
56737;BME280;42618;51.226;4.910;2022-12-29T03:19:16;49782.81;;;-146.94;100.00
56737;BME280;42618;51.226;4.910;2022-12-29T03:22:07;49727.00;;;-146.94;100.00
56737;BME280;42618;51.226;4.910;2022-12-29T03:25:10;49782.81;;;-146.94;100.00
56737;BME280;42618;51.226;4.910;2022-12-29T03:27:56;49717.03;;;-146.94;100.00
56737;BME280;42618;51.226;4.910;2022-12-29T03:30:27;49746.94;;;-146.94;100.00
56737;BME280;42618;51.226;4.910;2022-12-29T03:33:00;49738.97;;;-146.94;100.00
56737;BME280;42618;51.226;4.910;2022-12-29T03:35:34;49746.94;;;-146.94;100.00
56737;BME280;42618;51.226;4.910;2022-12-29T03:40:40;49736.97;;;-146.94;100.00
56737;BME280;42618;51.226;4.910;2022-12-29T03:43:09;49774.84;;;-146.94;100.00
56737;BME280;42618;51.226;4.910;2022-12-29T03:45:38;49738.97;;;-146.94;100.00
56737;BME280;42618;51.226;4.910;2022-12-29T03:48:05;49770.88;;;-146.94;100.00
56737;BME280;42618;51.226;4.910;2022-12-29T03:50:32;49774.84;;;-146.94;100.00
56737;BME280;42618;51.226;4.910;2022-12-29T03:52:59;49752.91;;;-146.94;100.00
56737;BME280;42618;51.226;4.910;2022-12-29T03:55:27;49750.94;;;-146.94;100.00
56737;BME280;42618;51.226;4.910;2022-12-29T03:57:54;49750.94;;;-146.94;100.00
56737;BME280;42618;51.226;4.910;2022-12-29T04:00:31;49762.88;;;-146.94;100.00
56737;BME280;42618;51.226;4.910;2022-12-29T04:02:58;49780.84;;;-146.94;100.00
56737;BME280;42618;51.226;4.910;2022-12-29T04:05:25;49766.88;;;-146.94;100.00
56737;BME280;42618;51.226;4.910;2022-12-29T04:07:54;49764.88;;;-146.94;100.00
56737;BME280;42618;51.226;4.910;2022-12-29T04:10:22;49766.88;;;-146.94;100.00
56737;BME280;42618;51.226;4.910;2022-12-29T04:12:53;49754.91;;;-146.94;100.00
56737;BME280;42618;51.226;4.910;2022-12-29T04:15:20;49752.91;;;-146.94;100.00
56737;BME280;42618;51.226;4.910;2022-12-29T04:17:47;49776.84;;;-146.94;100.00
56737;BME280;42618;51.226;4.910;2022-12-29T04:20:14;49719.03;;;-146.94;100.00
56737;BME280;42618;51.226;4.910;2022-12-29T04:23:03;49742.94;;;-146.94;99.58
56737;BME280;42618;51.226;4.910;2022-12-29T04:25:32;49768.88;;;-146.94;99.64
56737;BME280;42618;51.226;4.910;2022-12-29T04:28:00;49746.94;;;-146.94;99.49
56737;BME280;42618;51.226;4.910;2022-12-29T04:30:43;49786.81;;;-146.94;100.00
56737;BME280;42618;51.226;4.910;2022-12-29T04:33:19;49770.88;;;-146.94;100.00
56737;BME280;42618;51.226;4.910;2022-12-29T04:35:47;49734.97;;;-146.94;100.00
56737;BME280;42618;51.226;4.910;2022-12-29T04:38:14;49764.88;;;-146.94;100.00
56737;BME280;42618;51.226;4.910;2022-12-29T04:40:43;49766.88;;;-146.94;100.00
56737;BME280;42618;51.226;4.910;2022-12-29T04:43:10;49754.91;;;-146.94;100.00
56737;BME280;42618;51.226;4.910;2022-12-29T04:46:08;49766.88;;;-146.94;100.00
56737;BME280;42618;51.226;4.910;2022-12-29T04:48:50;49734.97;;;-146.94;100.00
56737;BME280;42618;51.226;4.910;2022-12-29T04:51:40;49770.88;;;-146.94;100.00
56737;BME280;42618;51.226;4.910;2022-12-29T04:54:09;49754.91;;;-146.94;100.00
56737;BME280;42618;51.226;4.910;2022-12-29T04:56:36;49770.88;;;-146.94;100.00
56737;BME280;42618;51.226;4.910;2022-12-29T04:59:03;49784.81;;;-146.94;100.00
56737;BME280;42618;51.226;4.910;2022-12-29T05:01:30;49772.84;;;-146.94;100.00
56737;BME280;42618;51.226;4.910;2022-12-29T05:03:57;49754.91;;;-146.94;100.00
56737;BME280;42618;51.226;4.910;2022-12-29T05:06:24;49738.97;;;-146.94;100.00
56737;BME280;42618;51.226;4.910;2022-12-29T05:08:51;49744.94;;;-146.94;100.00
56737;BME280;42618;51.226;4.910;2022-12-29T05:11:19;49760.91;;;-146.94;100.00
56737;BME280;42618;51.226;4.910;2022-12-29T05:13:48;49750.94;;;-146.94;100.00
56737;BME280;42618;51.226;4.910;2022-12-29T05:16:16;49752.91;;;-146.94;99.44
56737;BME280;42618;51.226;4.910;2022-12-29T05:18:44;49738.97;;;-146.94;100.00
56737;BME280;42618;51.226;4.910;2022-12-29T05:21:11;49754.91;;;-146.94;100.00
56737;BME280;42618;51.226;4.910;2022-12-29T05:23:40;49802.75;;;-146.94;100.00
56737;BME280;42618;51.226;4.910;2022-12-29T05:26:07;49727.00;;;-146.94;100.00
56737;BME280;42618;51.226;4.910;2022-12-29T05:29:09;49746.94;;;-146.94;100.00
56737;BME280;42618;51.226;4.910;2022-12-29T05:31:36;49742.94;;;-146.94;100.00
56737;BME280;42618;51.226;4.910;2022-12-29T05:34:04;49729.00;;;-146.94;100.00
56737;BME280;42618;51.226;4.910;2022-12-29T05:36:31;49734.97;;;-146.94;100.00
56737;BME280;42618;51.226;4.910;2022-12-29T05:39:04;49754.91;;;-146.94;99.37
56737;BME280;42618;51.226;4.910;2022-12-29T05:41:33;49738.97;;;-146.94;99.10
56737;BME280;42618;51.226;4.910;2022-12-29T05:44:03;49727.00;;;-146.94;98.55
56737;BME280;42618;51.226;4.910;2022-12-29T05:46:46;49762.88;;;-146.94;98.32
56737;BME280;42618;51.226;4.910;2022-12-29T05:49:32;49760.91;;;-146.94;99.26
56737;BME280;42618;51.226;4.910;2022-12-29T05:52:08;49733.00;;;-146.94;98.64
56737;BME280;42618;51.226;4.910;2022-12-29T05:54:35;49742.94;;;-146.94;99.41
56737;BME280;42618;51.226;4.910;2022-12-29T05:57:07;49738.97;;;-146.94;99.37
56737;BME280;42618;51.226;4.910;2022-12-29T05:59:34;49750.94;;;-146.94;99.69
56737;BME280;42618;51.226;4.910;2022-12-29T06:02:01;49762.88;;;-146.94;99.54
56737;BME280;42618;51.226;4.910;2022-12-29T06:04:28;49756.91;;;-146.94;99.78
56737;BME280;42618;51.226;4.910;2022-12-29T06:06:55;49764.88;;;-146.94;99.65
56737;BME280;42618;51.226;4.910;2022-12-29T06:09:32;49758.91;;;-146.94;99.37
56737;BME280;42618;51.226;4.910;2022-12-29T06:12:00;49740.97;;;-146.94;98.35
56737;BME280;42618;51.226;4.910;2022-12-29T06:14:28;49731.00;;;-146.94;98.37
56737;BME280;42618;51.226;4.910;2022-12-29T06:16:54;49766.88;;;-146.94;96.53
56737;BME280;42618;51.226;4.910;2022-12-29T06:19:21;49758.91;;;-146.94;96.68
56737;BME280;42618;51.226;4.910;2022-12-29T06:21:48;49746.94;;;-146.94;96.59
56737;BME280;42618;51.226;4.910;2022-12-29T06:24:15;49731.00;;;-146.94;96.49
56737;BME280;42618;51.226;4.910;2022-12-29T06:26:42;49740.97;;;-146.94;96.49
56737;BME280;42618;51.226;4.910;2022-12-29T06:29:08;49731.00;;;-146.94;95.78
56737;BME280;42618;51.226;4.910;2022-12-29T06:31:35;49736.97;;;-146.94;94.66
56737;BME280;42618;51.226;4.910;2022-12-29T06:34:03;49725.00;;;-146.94;94.23
56737;BME280;42618;51.226;4.910;2022-12-29T06:36:35;49711.06;;;-146.94;93.30
56737;BME280;42618;51.226;4.910;2022-12-29T06:39:03;49754.91;;;-146.94;93.61
56737;BME280;42618;51.226;4.910;2022-12-29T06:41:30;49778.84;;;-146.94;93.04
56737;BME280;42618;51.226;4.910;2022-12-29T06:44:22;49758.91;;;-146.94;93.30
56737;BME280;42618;51.226;4.910;2022-12-29T06:46:52;49746.94;;;-146.94;92.56
56737;BME280;42618;51.226;4.910;2022-12-29T06:49:18;49701.09;;;-146.94;92.28
56737;BME280;42618;51.226;4.910;2022-12-29T06:51:45;49719.03;;;-146.94;92.13
56737;BME280;42618;51.226;4.910;2022-12-29T06:54:12;49707.06;;;-146.94;91.66
56737;BME280;42618;51.226;4.910;2022-12-29T06:56:39;49750.94;;;-146.94;91.90
56737;BME280;42618;51.226;4.910;2022-12-29T06:59:06;49744.94;;;-146.94;89.56
56737;BME280;42618;51.226;4.910;2022-12-29T07:01:32;49738.97;;;-146.94;89.63
56737;BME280;42618;51.226;4.910;2022-12-29T07:04:00;49746.94;;;-146.94;89.85
56737;BME280;42618;51.226;4.910;2022-12-29T07:06:26;49746.94;;;-146.94;88.67
56737;BME280;42618;51.226;4.910;2022-12-29T07:08:53;49703.09;;;-146.94;89.06
56737;BME280;42618;51.226;4.910;2022-12-29T07:11:21;49740.97;;;-146.94;88.85
56737;BME280;42618;51.226;4.910;2022-12-29T07:13:48;49760.91;;;-146.94;89.21
56737;BME280;42618;51.226;4.910;2022-12-29T07:16:15;49695.09;;;-146.94;88.81
56737;BME280;42618;51.226;4.910;2022-12-29T07:18:42;49734.97;;;-146.94;88.08
56737;BME280;42618;51.226;4.910;2022-12-29T07:21:09;49752.91;;;-146.94;87.87
56737;BME280;42618;51.226;4.910;2022-12-29T07:23:36;49764.88;;;-146.94;88.31
56737;BME280;42618;51.226;4.910;2022-12-29T07:26:05;49742.94;;;-146.94;87.71
56737;BME280;42618;51.226;4.910;2022-12-29T07:28:34;49707.06;;;-146.94;88.10
56737;BME280;42618;51.226;4.910;2022-12-29T07:31:01;49758.91;;;-146.94;88.65
56737;BME280;42618;51.226;4.910;2022-12-29T07:33:29;49770.88;;;-146.94;88.55
56737;BME280;42618;51.226;4.910;2022-12-29T07:35:55;49738.97;;;-146.94;87.99
56737;BME280;42618;51.226;4.910;2022-12-29T07:38:22;49748.94;;;-146.94;87.25
56737;BME280;42618;51.226;4.910;2022-12-29T07:40:49;49713.06;;;-146.94;86.57
56737;BME280;42618;51.226;4.910;2022-12-29T07:43:16;49736.97;;;-146.94;85.85
56737;BME280;42618;51.226;4.910;2022-12-29T07:45:56;49731.00;;;-146.94;85.11
56737;BME280;42618;51.226;4.910;2022-12-29T07:48:23;49762.88;;;-146.94;85.66
56737;BME280;42618;51.226;4.910;2022-12-29T07:50:51;49703.09;;;-146.94;84.51
56737;BME280;42618;51.226;4.910;2022-12-29T07:53:18;49738.97;;;-146.94;84.79
56737;BME280;42618;51.226;4.910;2022-12-29T07:55:45;49731.00;;;-146.94;85.19
56737;BME280;42618;51.226;4.910;2022-12-29T07:58:12;49744.94;;;-146.94;84.93
56737;BME280;42618;51.226;4.910;2022-12-29T08:00:38;49750.94;;;-146.94;84.83
56737;BME280;42618;51.226;4.910;2022-12-29T08:03:05;49711.06;;;-146.94;84.18
56737;BME280;42618;51.226;4.910;2022-12-29T08:05:33;49740.97;;;-146.94;84.62
56737;BME280;42618;51.226;4.910;2022-12-29T08:08:00;49715.03;;;-146.94;84.55
56737;BME280;42618;51.226;4.910;2022-12-29T08:10:27;49727.00;;;-146.94;84.72
56737;BME280;42618;51.226;4.910;2022-12-29T08:12:54;49729.00;;;-146.94;84.32
56737;BME280;42618;51.226;4.910;2022-12-29T08:15:20;49731.00;;;-146.94;84.35
56737;BME280;42618;51.226;4.910;2022-12-29T08:17:56;49727.00;;;-146.94;83.46
56737;BME280;42618;51.226;4.910;2022-12-29T08:20:22;49711.06;;;-146.94;84.12
56737;BME280;42618;51.226;4.910;2022-12-29T08:22:50;49707.06;;;-146.94;84.49
56737;BME280;42618;51.226;4.910;2022-12-29T08:25:18;49723.03;;;-146.94;85.10
56737;BME280;42618;51.226;4.910;2022-12-29T08:27:46;49733.00;;;-146.94;85.48
56737;BME280;42618;51.226;4.910;2022-12-29T08:30:13;49744.94;;;-146.94;84.71
56737;BME280;42618;51.226;4.910;2022-12-29T08:32:40;49715.03;;;-146.94;85.14
56737;BME280;42618;51.226;4.910;2022-12-29T08:35:07;49762.88;;;-146.94;85.55
56737;BME280;42618;51.226;4.910;2022-12-29T08:37:34;49752.91;;;-146.94;84.58
56737;BME280;42618;51.226;4.910;2022-12-29T08:40:01;49685.13;;;-146.94;84.26
56737;BME280;42618;51.226;4.910;2022-12-29T08:42:31;49691.13;;;-146.94;84.48
56737;BME280;42618;51.226;4.910;2022-12-29T08:44:58;49707.06;;;-146.94;84.37
56737;BME280;42618;51.226;4.910;2022-12-29T08:47:25;49758.91;;;-146.94;84.50
56737;BME280;42618;51.226;4.910;2022-12-29T08:49:52;49733.00;;;-146.94;84.19
56737;BME280;42618;51.226;4.910;2022-12-29T08:52:19;49703.09;;;-146.94;83.92
56737;BME280;42618;51.226;4.910;2022-12-29T08:54:46;49719.03;;;-146.94;83.59
56737;BME280;42618;51.226;4.910;2022-12-29T08:57:13;49711.06;;;-146.94;83.27
56737;BME280;42618;51.226;4.910;2022-12-29T08:59:52;49731.00;;;-146.94;84.38
56737;BME280;42618;51.226;4.910;2022-12-29T09:02:19;49727.00;;;-146.94;84.79
56737;BME280;42618;51.226;4.910;2022-12-29T09:04:51;49725.00;;;-146.94;84.00
56737;BME280;42618;51.226;4.910;2022-12-29T09:07:18;49715.03;;;-146.94;84.77
56737;BME280;42618;51.226;4.910;2022-12-29T09:09:44;49734.97;;;-146.94;85.49
56737;BME280;42618;51.226;4.910;2022-12-29T09:12:11;49719.03;;;-146.94;84.78
56737;BME280;42618;51.226;4.910;2022-12-29T09:14:38;49727.00;;;-146.94;84.97
56737;BME280;42618;51.226;4.910;2022-12-29T09:17:05;49738.97;;;-146.94;86.66
56737;BME280;42618;51.226;4.910;2022-12-29T09:19:50;49733.00;;;-146.94;87.59
56737;BME280;42618;51.226;4.910;2022-12-29T09:22:17;49697.09;;;-146.94;88.37
56737;BME280;42618;51.226;4.910;2022-12-29T09:24:43;49723.03;;;-146.94;88.60
56737;BME280;42618;51.226;4.910;2022-12-29T09:27:10;49701.09;;;-146.94;89.63
56737;BME280;42618;51.226;4.910;2022-12-29T09:29:37;49715.03;;;-146.94;91.24
56737;BME280;42618;51.226;4.910;2022-12-29T09:32:04;49723.03;;;-146.94;92.71
56737;BME280;42618;51.226;4.910;2022-12-29T09:34:34;49752.91;;;-146.94;92.66
56737;BME280;42618;51.226;4.910;2022-12-29T09:37:01;49731.00;;;-146.94;92.56
56737;BME280;42618;51.226;4.910;2022-12-29T09:39:27;49733.00;;;-146.94;92.95
56737;BME280;42618;51.226;4.910;2022-12-29T09:42:13;49681.16;;;-146.94;92.63
56737;BME280;42618;51.226;4.910;2022-12-29T09:47:16;49750.94;;;-146.94;95.27
56737;BME280;42618;51.226;4.910;2022-12-29T09:49:49;49729.00;;;-146.94;95.81
56737;BME280;42618;51.226;4.910;2022-12-29T09:52:22;49756.91;;;-146.94;95.59
56737;BME280;42618;51.226;4.910;2022-12-29T09:55:13;49738.97;;;-146.94;96.53
56737;BME280;42618;51.226;4.910;2022-12-29T10:00:22;49723.03;;;-146.94;95.06
56737;BME280;42618;51.226;4.910;2022-12-29T10:02:57;49731.00;;;-146.94;95.37
56737;BME280;42618;51.226;4.910;2022-12-29T10:05:52;49731.00;;;-146.94;95.47
56737;BME280;42618;51.226;4.910;2022-12-29T10:14:15;49758.91;;;-146.94;96.33
56737;BME280;42618;51.226;4.910;2022-12-29T10:17:17;49738.97;;;-146.94;96.50
56737;BME280;42618;51.226;4.910;2022-12-29T10:25:22;49715.03;;;-146.94;100.00
56737;BME280;42618;51.226;4.910;2022-12-29T10:27:59;49733.00;;;-146.94;100.00
56737;BME280;42618;51.226;4.910;2022-12-29T10:30:28;49727.00;;;-146.94;100.00
56737;BME280;42618;51.226;4.910;2022-12-29T10:32:58;49717.03;;;-146.94;100.00
56737;BME280;42618;51.226;4.910;2022-12-29T10:35:31;49738.97;;;-146.94;99.82
56737;BME280;42618;51.226;4.910;2022-12-29T10:41:15;49740.97;;;-146.94;98.34
56737;BME280;42618;51.226;4.910;2022-12-29T10:43:48;49709.06;;;-146.94;98.24
56737;BME280;42618;51.226;4.910;2022-12-29T10:46:23;49768.88;;;-146.94;99.38
56737;BME280;42618;51.226;4.910;2022-12-29T10:48:52;49705.06;;;-146.94;100.00
56737;BME280;42618;51.226;4.910;2022-12-29T10:53:53;49752.91;;;-146.94;100.00
56737;BME280;42618;51.226;4.910;2022-12-29T10:58:55;49768.88;;;-146.94;100.00
56737;BME280;42618;51.226;4.910;2022-12-29T11:01:34;49750.94;;;-146.94;100.00
56737;BME280;42618;51.226;4.910;2022-12-29T11:04:35;49725.00;;;-146.94;100.00
56737;BME280;42618;51.226;4.910;2022-12-29T11:07:11;49736.97;;;-146.94;100.00
56737;BME280;42618;51.226;4.910;2022-12-29T11:09:43;49727.00;;;-146.94;100.00
56737;BME280;42618;51.226;4.910;2022-12-29T11:12:30;49729.00;;;-146.94;100.00
56737;BME280;42618;51.226;4.910;2022-12-29T11:15:01;49754.91;;;-146.94;99.23
56737;BME280;42618;51.226;4.910;2022-12-29T11:17:29;49707.06;;;-146.94;98.37
56737;BME280;42618;51.226;4.910;2022-12-29T11:19:55;49750.94;;;-146.94;97.61
56737;BME280;42618;51.226;4.910;2022-12-29T11:22:25;49693.13;;;-146.94;96.02
56737;BME280;42618;51.226;4.910;2022-12-29T11:24:52;49733.00;;;-146.94;94.80
56737;BME280;42618;51.226;4.910;2022-12-29T11:27:21;49689.13;;;-146.94;92.76
56737;BME280;42618;51.226;4.910;2022-12-29T11:29:50;49725.00;;;-146.94;91.45
56737;BME280;42618;51.226;4.910;2022-12-29T11:32:26;49742.94;;;-146.94;90.12
56737;BME280;42618;51.226;4.910;2022-12-29T11:34:56;49715.03;;;-146.94;89.72
56737;BME280;42618;51.226;4.910;2022-12-29T11:39:55;49715.03;;;-146.94;88.38
56737;BME280;42618;51.226;4.910;2022-12-29T11:42:37;49717.03;;;-146.94;88.29
56737;BME280;42618;51.226;4.910;2022-12-29T11:45:22;49715.03;;;-146.94;87.10
56737;BME280;42618;51.226;4.910;2022-12-29T11:47:55;49695.09;;;-146.94;87.24
56737;BME280;42618;51.226;4.910;2022-12-29T11:50:32;49715.03;;;-146.94;87.27
56737;BME280;42618;51.226;4.910;2022-12-29T11:53:13;49675.19;;;-146.94;86.32
56737;BME280;42618;51.226;4.910;2022-12-29T11:56:03;49731.00;;;-146.94;86.50
56737;BME280;42618;51.226;4.910;2022-12-29T11:58:36;49715.03;;;-146.94;86.34
56737;BME280;42618;51.226;4.910;2022-12-29T12:01:19;49725.00;;;-146.94;85.97
56737;BME280;42618;51.226;4.910;2022-12-29T12:04:12;49707.06;;;-146.94;86.69
56737;BME280;42618;51.226;4.910;2022-12-29T12:06:47;49703.09;;;-146.94;86.24
56737;BME280;42618;51.226;4.910;2022-12-29T12:09:54;49713.06;;;-146.94;87.04
56737;BME280;42618;51.226;4.910;2022-12-29T12:12:35;49721.03;;;-146.94;87.17
56737;BME280;42618;51.226;4.910;2022-12-29T12:15:05;49699.09;;;-146.94;87.26
56737;BME280;42618;51.226;4.910;2022-12-29T12:18:04;49691.13;;;-146.94;89.03
56737;BME280;42618;51.226;4.910;2022-12-29T12:20:44;49679.16;;;-146.94;88.76
56737;BME280;42618;51.226;4.910;2022-12-29T12:29:52;49663.22;;;-146.94;89.10
56737;BME280;42618;51.226;4.910;2022-12-29T12:33:27;49721.03;;;-146.94;88.97
56737;BME280;42618;51.226;4.910;2022-12-29T12:59:36;49727.00;;;-146.94;100.00
56737;BME280;42618;51.226;4.910;2022-12-29T13:18:27;49731.00;;;-146.94;100.00
56737;BME280;42618;51.226;4.910;2022-12-29T13:21:18;49715.03;;;-146.94;100.00
56737;BME280;42618;51.226;4.910;2022-12-29T13:24:33;49736.97;;;-146.94;100.00
56737;BME280;42618;51.226;4.910;2022-12-29T13:36:02;49695.09;;;-146.94;100.00
56737;BME280;42618;51.226;4.910;2022-12-29T13:38:41;49736.97;;;-146.94;100.00
56737;BME280;42618;51.226;4.910;2022-12-29T13:42:00;49711.06;;;-146.94;100.00
56737;BME280;42618;51.226;4.910;2022-12-29T13:44:03;49711.06;;;-146.94;100.00
56737;BME280;42618;51.226;4.910;2022-12-29T13:46:40;49754.91;;;-146.94;100.00
56737;BME280;42618;51.226;4.910;2022-12-29T13:49:16;49740.97;;;-146.94;100.00
56737;BME280;42618;51.226;4.910;2022-12-29T13:51:51;49727.00;;;-146.94;100.00
56737;BME280;42618;51.226;4.910;2022-12-29T13:54:29;49742.94;;;-146.94;99.89
56737;BME280;42618;51.226;4.910;2022-12-29T13:57:12;49689.13;;;-146.94;99.83
56737;BME280;42618;51.226;4.910;2022-12-29T14:00:15;49723.03;;;-146.94;98.95
56737;BME280;42618;51.226;4.910;2022-12-29T14:08:00;49727.00;;;-146.94;97.94
56737;BME280;42618;51.226;4.910;2022-12-29T14:10:56;49721.03;;;-146.94;97.95
56737;BME280;42618;51.226;4.910;2022-12-29T14:13:24;49681.16;;;-146.94;99.74
56737;BME280;42618;51.226;4.910;2022-12-29T14:15:56;49725.00;;;-146.94;100.00
56737;BME280;42618;51.226;4.910;2022-12-29T14:18:29;49738.97;;;-146.94;100.00
56737;BME280;42618;51.226;4.910;2022-12-29T14:23:41;49731.00;;;-146.94;100.00
56737;BME280;42618;51.226;4.910;2022-12-29T14:28:48;49705.06;;;-146.94;100.00
56737;BME280;42618;51.226;4.910;2022-12-29T14:36:36;49727.00;;;-146.94;100.00
56737;BME280;42618;51.226;4.910;2022-12-29T14:39:29;49719.03;;;-146.94;100.00
56737;BME280;42618;51.226;4.910;2022-12-29T14:42:06;49778.84;;;-146.94;100.00
56737;BME280;42618;51.226;4.910;2022-12-29T14:44:51;49727.00;;;-146.94;100.00
56737;BME280;42618;51.226;4.910;2022-12-29T14:47:32;49738.97;;;-146.94;100.00
56737;BME280;42618;51.226;4.910;2022-12-29T14:50:15;49754.91;;;-146.94;100.00
56737;BME280;42618;51.226;4.910;2022-12-29T14:52:58;49762.88;;;-146.94;100.00
56737;BME280;42618;51.226;4.910;2022-12-29T14:55:43;49748.94;;;-146.94;100.00
56737;BME280;42618;51.226;4.910;2022-12-29T14:58:39;49727.00;;;-146.94;100.00
56737;BME280;42618;51.226;4.910;2022-12-29T15:01:47;49764.88;;;-146.94;100.00
56737;BME280;42618;51.226;4.910;2022-12-29T15:04:31;49778.84;;;-146.94;100.00
56737;BME280;42618;51.226;4.910;2022-12-29T15:07:15;49768.88;;;-146.94;100.00
56737;BME280;42618;51.226;4.910;2022-12-29T15:10:03;49750.94;;;-146.94;100.00
56737;BME280;42618;51.226;4.910;2022-12-29T15:12:40;49752.91;;;-146.94;100.00
56737;BME280;42618;51.226;4.910;2022-12-29T15:15:23;49750.94;;;-146.94;100.00
56737;BME280;42618;51.226;4.910;2022-12-29T15:17:50;49750.94;;;-146.94;100.00
56737;BME280;42618;51.226;4.910;2022-12-29T15:20:23;49770.88;;;-146.94;100.00
56737;BME280;42618;51.226;4.910;2022-12-29T15:23:14;49719.03;;;-146.94;100.00
56737;BME280;42618;51.226;4.910;2022-12-29T15:25:51;49703.09;;;-146.94;100.00
56737;BME280;42618;51.226;4.910;2022-12-29T15:28:20;49754.91;;;-146.94;100.00
56737;BME280;42618;51.226;4.910;2022-12-29T15:31:03;49742.94;;;-146.94;100.00